createdAt,value
2019-05-05T00:00:44.527Z,0.00
2019-05-05T00:01:44.902Z,0.00
2019-05-05T00:02:42.247Z,0.00
2019-05-05T00:03:44.438Z,0.00
2019-05-05T00:04:42.287Z,0.00
2019-05-05T00:05:44.296Z,0.00
2019-05-05T00:06:42.125Z,0.00
2019-05-05T00:07:41.812Z,0.00
2019-05-05T00:08:41.726Z,0.00
2019-05-05T00:09:41.712Z,0.00
2019-05-05T00:10:41.558Z,0.00
2019-05-05T00:11:41.478Z,0.00
2019-05-05T00:12:41.525Z,0.00
2019-05-05T00:13:41.288Z,0.00
2019-05-05T00:14:41.328Z,0.00
2019-05-05T00:15:41.123Z,0.00
2019-05-05T00:16:41.166Z,0.00
2019-05-05T00:17:40.937Z,0.00
2019-05-05T00:18:40.865Z,0.00
2019-05-05T00:19:40.769Z,0.00
2019-05-05T00:20:40.751Z,0.00
2019-05-05T00:21:40.604Z,0.00
2019-05-05T00:22:40.560Z,0.00
2019-05-05T00:23:40.418Z,0.00
2019-05-05T00:24:40.369Z,0.00
2019-05-05T00:25:40.245Z,0.00
2019-05-05T00:26:40.208Z,0.00
2019-05-05T00:27:40.067Z,0.00
2019-05-05T00:28:39.980Z,0.00
2019-05-05T00:29:39.993Z,0.00
2019-05-05T00:30:39.811Z,0.00
2019-05-05T00:31:39.746Z,0.00
2019-05-05T00:32:39.810Z,0.00
2019-05-05T00:33:39.552Z,0.00
2019-05-05T00:34:39.456Z,0.00
2019-05-05T00:35:39.421Z,0.00
2019-05-05T00:36:39.303Z,0.00
2019-05-05T00:37:39.192Z,0.00
2019-05-05T00:38:39.235Z,0.00
2019-05-05T00:39:39.020Z,0.00
2019-05-05T00:40:38.938Z,0.00
2019-05-05T00:41:38.873Z,0.00
2019-05-05T00:42:38.768Z,0.00
2019-05-05T00:43:38.672Z,0.00
2019-05-05T00:44:38.659Z,0.00
2019-05-05T00:45:38.496Z,0.00
2019-05-05T00:46:38.425Z,0.00
2019-05-05T00:47:38.476Z,0.00
2019-05-05T00:48:38.240Z,0.00
2019-05-05T00:49:46.348Z,0.00
2019-05-05T00:50:38.088Z,0.00
2019-05-05T00:51:37.990Z,0.00
2019-05-05T00:52:38.098Z,0.00
2019-05-05T00:53:37.799Z,0.00
2019-05-05T00:54:37.714Z,0.00
2019-05-05T00:55:37.706Z,0.00
2019-05-05T00:56:37.553Z,0.00
2019-05-05T00:57:37.448Z,0.00
2019-05-05T00:58:37.523Z,0.00
2019-05-05T00:59:37.273Z,0.00
2019-05-05T01:00:37.332Z,0.00
2019-05-05T01:01:37.128Z,0.00
2019-05-05T01:02:37.139Z,0.00
2019-05-05T01:03:36.930Z,0.00
2019-05-05T01:04:36.949Z,0.00
2019-05-05T01:05:36.750Z,0.00
2019-05-05T01:06:36.757Z,0.00
2019-05-05T01:07:36.590Z,0.00
2019-05-05T01:08:36.569Z,0.00
2019-05-05T01:09:36.396Z,0.00
2019-05-05T01:10:36.373Z,0.00
2019-05-05T01:11:36.234Z,0.00
2019-05-05T01:12:36.218Z,0.00
2019-05-05T01:13:36.048Z,0.00
2019-05-05T01:14:35.990Z,0.00
2019-05-05T01:15:35.917Z,0.00
2019-05-05T01:16:36.003Z,0.00
2019-05-05T01:17:35.711Z,0.00
2019-05-05T01:18:35.618Z,0.00
2019-05-05T01:19:35.614Z,0.00
2019-05-05T01:20:35.433Z,0.00
2019-05-05T01:21:35.350Z,0.00
2019-05-05T01:22:35.461Z,0.00
2019-05-05T01:23:35.177Z,0.00
2019-05-05T01:24:35.083Z,0.00
2019-05-05T01:25:35.254Z,0.00
2019-05-05T01:26:35.490Z,0.00
2019-05-05T01:27:34.892Z,0.00
2019-05-05T01:28:35.500Z,0.00
2019-05-05T01:29:34.761Z,0.00
2019-05-05T01:30:35.087Z,0.00
2019-05-05T01:31:34.730Z,0.00
2019-05-05T01:32:35.140Z,0.00
2019-05-05T01:33:34.477Z,0.00
2019-05-05T01:34:34.860Z,0.00
2019-05-05T01:35:34.339Z,0.00
2019-05-05T01:36:34.535Z,0.00
2019-05-05T01:37:34.835Z,0.00
2019-05-05T01:38:34.296Z,0.00
2019-05-05T01:39:34.554Z,0.00
2019-05-05T01:40:35.330Z,0.00
2019-05-05T01:41:34.814Z,0.00
2019-05-05T01:42:35.253Z,0.00
2019-05-05T01:43:34.635Z,0.00
2019-05-05T01:44:35.110Z,0.00
2019-05-05T01:45:34.740Z,0.00
2019-05-05T01:46:35.155Z,0.00
2019-05-05T01:47:34.725Z,0.00
2019-05-05T01:48:34.964Z,0.00
2019-05-05T01:49:34.494Z,0.00
2019-05-05T01:50:34.770Z,0.00
2019-05-05T01:51:32.717Z,0.00
2019-05-05T01:52:34.431Z,0.00
2019-05-05T01:53:32.555Z,0.00
2019-05-05T01:54:32.463Z,0.00
2019-05-05T01:55:34.545Z,0.00
2019-05-05T01:56:32.281Z,0.00
2019-05-05T01:57:34.342Z,0.00
2019-05-05T01:58:32.187Z,0.00
2019-05-05T01:59:32.021Z,0.00
2019-05-05T02:00:31.938Z,0.00
2019-05-05T02:01:32.000Z,0.00
2019-05-05T02:02:31.770Z,0.00
2019-05-05T02:03:31.671Z,0.00
2019-05-05T02:04:31.611Z,0.00
2019-05-05T02:05:31.492Z,0.00
2019-05-05T02:06:31.409Z,0.00
2019-05-05T02:07:31.459Z,0.00
2019-05-05T02:08:31.230Z,0.00
2019-05-05T02:09:31.151Z,0.00
2019-05-05T02:10:31.243Z,0.00
2019-05-05T02:11:30.975Z,0.00
2019-05-05T02:12:30.892Z,0.00
2019-05-05T02:13:30.859Z,0.00
2019-05-05T02:14:30.711Z,0.00
2019-05-05T02:15:30.663Z,0.00
2019-05-05T02:16:30.530Z,0.00
2019-05-05T02:17:30.912Z,0.00
2019-05-05T02:18:30.363Z,0.00
2019-05-05T02:19:30.271Z,0.00
2019-05-05T02:20:31.320Z,0.00
2019-05-05T02:21:30.090Z,0.00
2019-05-05T02:22:30.034Z,0.00
2019-05-05T02:23:30.135Z,0.00
2019-05-05T02:24:29.825Z,0.00
2019-05-05T02:25:29.908Z,0.00
2019-05-05T02:26:29.655Z,0.00
2019-05-05T02:27:29.731Z,0.00
2019-05-05T02:28:29.487Z,0.00
2019-05-05T02:29:29.384Z,0.00
2019-05-05T02:30:29.325Z,0.00
2019-05-05T02:31:29.218Z,0.00
2019-05-05T02:32:29.130Z,0.00
2019-05-05T02:33:29.177Z,0.00
2019-05-05T02:34:28.950Z,0.00
2019-05-05T02:35:28.871Z,0.00
2019-05-05T02:36:29.171Z,0.00
2019-05-05T02:37:28.689Z,0.00
2019-05-05T02:38:28.617Z,0.00
2019-05-05T02:39:28.565Z,0.00
2019-05-05T02:40:29.821Z,0.00
2019-05-05T02:41:28.337Z,0.00
2019-05-05T02:42:28.419Z,0.00
2019-05-05T02:43:28.206Z,0.00
2019-05-05T02:44:28.077Z,0.00
2019-05-05T02:45:28.199Z,0.00
2019-05-05T02:46:27.901Z,0.00
2019-05-05T02:47:27.818Z,0.00
2019-05-05T02:48:27.845Z,0.00
2019-05-05T02:49:27.636Z,0.00
2019-05-05T02:50:27.554Z,0.00
2019-05-05T02:51:27.628Z,0.00
2019-05-05T02:52:27.377Z,0.00
2019-05-05T02:53:27.295Z,0.00
2019-05-05T02:54:27.235Z,0.00
2019-05-05T02:55:27.106Z,0.00
2019-05-05T02:56:27.027Z,0.00
2019-05-05T02:57:27.051Z,0.00
2019-05-05T02:58:26.867Z,0.00
2019-05-05T02:59:26.761Z,0.00
2019-05-05T03:00:26.866Z,0.00
2019-05-05T03:01:26.584Z,0.00
2019-05-05T03:02:26.676Z,0.00
2019-05-05T03:03:26.425Z,0.00
2019-05-05T03:04:26.480Z,0.00
2019-05-05T03:05:26.234Z,0.00
2019-05-05T03:06:26.288Z,0.00
2019-05-05T03:07:26.062Z,0.00
2019-05-05T03:08:26.126Z,0.00
2019-05-05T03:09:25.890Z,0.00
2019-05-05T03:10:25.798Z,0.00
2019-05-05T03:11:25.913Z,0.00
2019-05-05T03:12:25.625Z,0.00
2019-05-05T03:13:25.551Z,0.00
2019-05-05T03:14:25.523Z,0.00
2019-05-05T03:15:25.368Z,0.00
2019-05-05T03:16:25.331Z,0.00
2019-05-05T03:17:25.186Z,0.00
2019-05-05T03:18:25.202Z,0.00
2019-05-05T03:19:25.007Z,0.00
2019-05-05T03:20:31.943Z,0.00
2019-05-05T03:21:24.837Z,0.00
2019-05-05T03:22:24.787Z,0.00
2019-05-05T03:23:24.690Z,0.00
2019-05-05T03:24:24.595Z,0.00
2019-05-05T03:25:24.489Z,0.00
2019-05-05T03:26:25.429Z,0.00
2019-05-05T03:27:24.321Z,0.00
2019-05-05T03:28:24.351Z,0.00
2019-05-05T03:29:24.478Z,0.00
2019-05-05T03:30:26.033Z,0.00
2019-05-05T03:31:26.308Z,0.00
2019-05-05T03:32:25.487Z,0.00
2019-05-05T03:33:25.050Z,0.00
2019-05-05T03:34:24.084Z,0.00
2019-05-05T03:35:24.127Z,0.00
2019-05-05T03:36:24.498Z,0.00
2019-05-05T03:37:25.027Z,0.00
2019-05-05T03:38:24.824Z,0.00
2019-05-05T03:39:23.613Z,0.00
2019-05-05T03:40:23.905Z,0.00
2019-05-05T03:41:23.879Z,0.00
2019-05-05T03:42:24.496Z,0.00
2019-05-05T03:43:23.681Z,0.00
2019-05-05T03:44:24.156Z,0.00
2019-05-05T03:45:23.470Z,0.00
2019-05-05T03:46:23.808Z,5.63
2019-05-05T03:47:24.096Z,5.63
2019-05-05T03:48:24.100Z,5.63
2019-05-05T03:49:24.273Z,5.63
2019-05-05T03:50:23.766Z,5.63
2019-05-05T03:51:24.212Z,5.63
2019-05-05T03:52:24.320Z,5.63
2019-05-05T03:53:22.050Z,5.63
2019-05-05T03:54:23.880Z,5.63
2019-05-05T03:55:24.043Z,5.63
2019-05-05T03:56:21.791Z,11.25
2019-05-05T03:57:21.761Z,11.25
2019-05-05T03:58:21.613Z,11.25
2019-05-05T03:59:21.544Z,11.25
2019-05-05T04:00:23.493Z,11.25
2019-05-05T04:01:21.357Z,11.25
2019-05-05T04:02:23.340Z,16.88
2019-05-05T04:03:21.282Z,16.88
2019-05-05T04:04:21.106Z,16.88
2019-05-05T04:05:21.014Z,22.50
2019-05-05T04:06:23.532Z,22.50
2019-05-05T04:07:20.834Z,22.50
2019-05-05T04:08:20.745Z,22.50
2019-05-05T04:09:20.746Z,28.13
2019-05-05T04:10:20.570Z,28.13
2019-05-05T04:11:20.491Z,33.75
2019-05-05T04:12:20.424Z,33.75
2019-05-05T04:13:20.313Z,39.38
2019-05-05T04:14:20.247Z,39.38
2019-05-05T04:15:20.241Z,45.00
2019-05-05T04:16:20.055Z,45.00
2019-05-05T04:17:19.963Z,50.63
2019-05-05T04:18:19.951Z,50.63
2019-05-05T04:19:19.806Z,56.25
2019-05-05T04:20:19.708Z,61.88
2019-05-05T04:21:30.353Z,61.88
2019-05-05T04:22:19.538Z,61.88
2019-05-05T04:23:19.449Z,61.88
2019-05-05T04:24:19.421Z,61.88
2019-05-05T04:25:19.284Z,67.50
2019-05-05T04:26:19.189Z,61.88
2019-05-05T04:27:19.195Z,61.88
2019-05-05T04:28:19.014Z,61.88
2019-05-05T04:29:18.943Z,61.88
2019-05-05T04:30:18.911Z,61.88
2019-05-05T04:31:18.759Z,61.88
2019-05-05T04:32:18.715Z,61.88
2019-05-05T04:33:18.588Z,61.88
2019-05-05T04:34:19.589Z,67.50
2019-05-05T04:35:18.415Z,67.50
2019-05-05T04:36:18.334Z,73.13
2019-05-05T04:37:18.341Z,78.75
2019-05-05T04:38:18.152Z,84.38
2019-05-05T04:39:18.082Z,84.38
2019-05-05T04:40:20.003Z,84.38
2019-05-05T04:41:17.942Z,78.75
2019-05-05T04:42:17.865Z,67.50
2019-05-05T04:43:17.745Z,61.88
2019-05-05T04:44:18.051Z,61.88
2019-05-05T04:45:17.553Z,73.13
2019-05-05T04:46:17.474Z,90.00
2019-05-05T04:47:18.411Z,101.25
2019-05-05T04:48:17.292Z,106.88
2019-05-05T04:49:17.223Z,112.50
2019-05-05T04:50:18.363Z,112.50
2019-05-05T04:51:17.040Z,106.88
2019-05-05T04:52:23.979Z,106.88
2019-05-05T04:53:16.866Z,95.63
2019-05-05T04:54:16.856Z,90.00
2019-05-05T04:55:16.695Z,90.00
2019-05-05T04:56:16.635Z,90.00
2019-05-05T04:57:16.527Z,90.00
2019-05-05T04:58:17.461Z,90.00
2019-05-05T04:59:16.368Z,95.63
2019-05-05T05:00:16.264Z,101.25
2019-05-05T05:01:16.263Z,101.25
2019-05-05T05:02:16.100Z,106.88
2019-05-05T05:03:16.008Z,101.25
2019-05-05T05:04:16.004Z,101.25
2019-05-05T05:05:15.837Z,101.25
2019-05-05T05:06:15.749Z,95.63
2019-05-05T05:07:15.687Z,95.63
2019-05-05T05:08:15.576Z,101.25
2019-05-05T05:09:15.493Z,118.13
2019-05-05T05:10:16.455Z,129.38
2019-05-05T05:11:15.325Z,135.00
2019-05-05T05:12:15.238Z,140.63
2019-05-05T05:13:15.211Z,151.88
2019-05-05T05:14:15.076Z,163.13
2019-05-05T05:15:15.010Z,168.75
2019-05-05T05:16:14.926Z,174.38
2019-05-05T05:17:14.815Z,174.38
2019-05-05T05:18:14.946Z,174.38
2019-05-05T05:19:14.746Z,180.00
2019-05-05T05:20:14.570Z,185.63
2019-05-05T05:21:14.886Z,191.25
2019-05-05T05:22:14.454Z,191.25
2019-05-05T05:23:14.384Z,196.88
2019-05-05T05:24:14.729Z,196.88
2019-05-05T05:25:14.147Z,196.88
2019-05-05T05:26:14.100Z,196.88
2019-05-05T05:27:13.967Z,202.50
2019-05-05T05:28:14.487Z,208.13
2019-05-05T05:29:15.128Z,213.75
2019-05-05T05:30:13.965Z,213.75
2019-05-05T05:31:14.151Z,219.38
2019-05-05T05:32:15.482Z,230.63
2019-05-05T05:33:14.922Z,236.25
2019-05-05T05:34:14.837Z,247.50
2019-05-05T05:35:14.160Z,264.38
2019-05-05T05:36:14.410Z,286.88
2019-05-05T05:37:13.541Z,298.13
2019-05-05T05:38:14.015Z,315.00
2019-05-05T05:39:14.001Z,331.88
2019-05-05T05:40:14.436Z,354.38
2019-05-05T05:41:13.637Z,376.88
2019-05-05T05:42:13.736Z,388.13
2019-05-05T05:43:13.898Z,399.38
2019-05-05T05:44:14.607Z,416.25
2019-05-05T05:45:14.457Z,427.50
2019-05-05T05:46:13.601Z,444.38
2019-05-05T05:47:14.086Z,455.63
2019-05-05T05:48:14.239Z,461.25
2019-05-05T05:49:13.544Z,466.88
2019-05-05T05:50:14.366Z,472.50
2019-05-05T05:51:11.912Z,483.75
2019-05-05T05:52:18.539Z,511.88
2019-05-05T05:53:13.834Z,540.00
2019-05-05T05:54:11.723Z,568.13
2019-05-05T05:55:11.597Z,601.88
2019-05-05T05:56:13.405Z,635.63
2019-05-05T05:57:13.466Z,652.50
2019-05-05T05:58:11.322Z,697.50
2019-05-05T05:59:11.240Z,731.25
2019-05-05T06:00:11.270Z,731.25
2019-05-05T06:01:11.070Z,731.25
2019-05-05T06:02:14.789Z,714.38
2019-05-05T06:03:10.952Z,663.75
2019-05-05T06:04:10.820Z,607.50
2019-05-05T06:05:10.745Z,556.88
2019-05-05T06:06:10.770Z,540.00
2019-05-05T06:07:10.573Z,523.13
2019-05-05T06:08:10.485Z,500.63
2019-05-05T06:09:10.481Z,478.13
2019-05-05T06:10:21.429Z,450.00
2019-05-05T06:11:10.235Z,405.00
2019-05-05T06:12:10.196Z,365.63
2019-05-05T06:13:10.064Z,337.50
2019-05-05T06:14:09.981Z,320.63
2019-05-05T06:15:09.924Z,303.75
2019-05-05T06:16:09.826Z,298.13
2019-05-05T06:17:09.824Z,309.38
2019-05-05T06:18:09.651Z,320.63
2019-05-05T06:19:10.375Z,326.25
2019-05-05T06:20:09.479Z,331.88
2019-05-05T06:21:09.410Z,309.38
2019-05-05T06:22:09.348Z,309.38
2019-05-05T06:23:09.226Z,337.50
2019-05-05T06:24:09.145Z,371.25
2019-05-05T06:25:09.164Z,393.75
2019-05-05T06:26:08.994Z,410.63
2019-05-05T06:27:16.471Z,433.13
2019-05-05T06:28:08.808Z,461.25
2019-05-05T06:29:08.808Z,506.25
2019-05-05T06:30:08.640Z,523.13
2019-05-05T06:31:08.566Z,540.00
2019-05-05T06:32:08.521Z,545.63
2019-05-05T06:33:08.389Z,534.38
2019-05-05T06:34:08.306Z,534.38
2019-05-05T06:35:08.336Z,528.75
2019-05-05T06:36:08.155Z,506.25
2019-05-05T06:37:08.053Z,495.00
2019-05-05T06:38:08.062Z,495.00
2019-05-05T06:39:07.883Z,495.00
2019-05-05T06:40:07.811Z,489.38
2019-05-05T06:41:07.791Z,506.25
2019-05-05T06:42:07.637Z,523.13
2019-05-05T06:43:07.577Z,573.75
2019-05-05T06:44:07.470Z,630.00
2019-05-05T06:45:07.481Z,658.13
2019-05-05T06:46:07.311Z,669.38
2019-05-05T06:47:07.215Z,675.00
2019-05-05T06:48:07.127Z,686.25
2019-05-05T06:49:07.100Z,714.38
2019-05-05T06:50:06.962Z,759.38
2019-05-05T06:51:06.894Z,826.88
2019-05-05T06:52:06.794Z,877.50
2019-05-05T06:53:06.820Z,939.38
2019-05-05T06:54:06.626Z,984.38
2019-05-05T06:55:06.628Z,1035.00
2019-05-05T06:56:06.471Z,1080.00
2019-05-05T06:57:06.376Z,1102.50
2019-05-05T06:58:06.340Z,1141.88
2019-05-05T06:59:06.210Z,1198.13
2019-05-05T07:00:06.125Z,1186.88
2019-05-05T07:01:06.086Z,1203.75
2019-05-05T07:02:05.961Z,1220.63
2019-05-05T07:03:07.873Z,1243.13
2019-05-05T07:04:05.871Z,1203.75
2019-05-05T07:05:05.712Z,1181.25
2019-05-05T07:06:05.662Z,1170.00
2019-05-05T07:07:05.584Z,1080.00
2019-05-05T07:08:05.468Z,1102.50
2019-05-05T07:09:05.613Z,1136.25
2019-05-05T07:10:05.301Z,1153.13
2019-05-05T07:11:05.280Z,1096.88
2019-05-05T07:12:05.212Z,1006.88
2019-05-05T07:13:05.095Z,1085.63
2019-05-05T07:14:04.974Z,1051.88
2019-05-05T07:15:04.932Z,838.13
2019-05-05T07:16:05.059Z,759.38
2019-05-05T07:17:05.234Z,759.38
2019-05-05T07:18:04.741Z,815.63
2019-05-05T07:19:04.562Z,866.25
2019-05-05T07:20:04.534Z,888.75
2019-05-05T07:21:04.423Z,990.00
2019-05-05T07:22:04.336Z,911.25
2019-05-05T07:23:05.417Z,843.75
2019-05-05T07:24:04.167Z,894.38
2019-05-05T07:25:04.739Z,1063.13
2019-05-05T07:26:04.355Z,1507.50
2019-05-05T07:27:04.742Z,2385.00
2019-05-05T07:28:04.371Z,2514.38
2019-05-05T07:29:04.566Z,2221.88
2019-05-05T07:30:04.731Z,2086.88
2019-05-05T07:31:04.404Z,2047.50
2019-05-05T07:32:04.084Z,1738.13
2019-05-05T07:33:04.682Z,1327.50
2019-05-05T07:34:04.718Z,1271.25
2019-05-05T07:35:04.093Z,1620.00
2019-05-05T07:36:05.895Z,2053.13
2019-05-05T07:37:03.859Z,2300.63
2019-05-05T07:38:04.483Z,1518.75
2019-05-05T07:39:03.823Z,1985.63
2019-05-05T07:40:04.210Z,2598.75
2019-05-05T07:41:03.684Z,2739.38
2019-05-05T07:42:04.531Z,1805.63
2019-05-05T07:43:04.530Z,2649.38
2019-05-05T07:44:04.827Z,2250.00
2019-05-05T07:45:05.401Z,2638.13
2019-05-05T07:46:03.926Z,2829.38
2019-05-05T07:47:03.629Z,1783.13
2019-05-05T07:48:04.634Z,2671.88
2019-05-05T07:49:04.034Z,2576.25
2019-05-05T07:50:04.015Z,1321.88
2019-05-05T07:51:05.173Z,2525.63
2019-05-05T07:52:03.952Z,1018.13
2019-05-05T07:53:12.268Z,2469.38
2019-05-05T07:54:03.646Z,2508.75
2019-05-05T07:55:03.625Z,2491.88
2019-05-05T07:56:03.574Z,871.88
2019-05-05T07:57:01.510Z,888.75
2019-05-05T07:58:01.464Z,2604.38
2019-05-05T07:59:03.230Z,2767.50
2019-05-05T08:00:01.257Z,1136.25
2019-05-05T08:01:01.251Z,2823.75
2019-05-05T08:02:01.111Z,2936.25
2019-05-05T08:03:08.027Z,3020.63
2019-05-05T08:04:00.944Z,1434.38
2019-05-05T08:05:00.974Z,2058.75
2019-05-05T08:06:00.785Z,1108.13
2019-05-05T08:07:00.811Z,2716.88
2019-05-05T08:08:00.625Z,1338.75
2019-05-05T08:09:00.590Z,1018.13
2019-05-05T08:10:00.465Z,1220.63
2019-05-05T08:11:00.506Z,2913.75
2019-05-05T08:12:00.321Z,2919.38
2019-05-05T08:13:00.310Z,2953.13
2019-05-05T08:14:00.153Z,3121.88
2019-05-05T08:15:00.118Z,3285.00
2019-05-05T08:16:00.302Z,3093.75
2019-05-05T08:16:59.958Z,1963.13
2019-05-05T08:17:59.835Z,1648.13
2019-05-05T08:18:59.840Z,1648.13
2019-05-05T08:19:59.683Z,3341.25
2019-05-05T08:20:59.648Z,3470.63
2019-05-05T08:21:59.559Z,3538.13
2019-05-05T08:22:59.449Z,3616.88
2019-05-05T08:23:59.481Z,3791.25
2019-05-05T08:24:59.288Z,1929.38
2019-05-05T08:25:59.211Z,2469.38
2019-05-05T08:26:59.344Z,2621.25
2019-05-05T08:27:59.054Z,1906.88
2019-05-05T08:28:58.981Z,1738.13
2019-05-05T08:30:02.076Z,2469.38
2019-05-05T08:30:58.827Z,1873.13
2019-05-05T08:31:58.769Z,1546.88
2019-05-05T08:32:58.715Z,1479.38
2019-05-05T08:33:58.593Z,1411.88
2019-05-05T08:35:00.955Z,1119.38
2019-05-05T08:35:58.522Z,843.75
2019-05-05T08:36:59.909Z,652.50
2019-05-05T08:37:58.280Z,483.75
2019-05-05T08:38:58.236Z,472.50
2019-05-05T08:39:58.122Z,517.50
2019-05-05T08:40:58.048Z,596.25
2019-05-05T08:41:58.188Z,680.63
2019-05-05T08:42:57.888Z,815.63
2019-05-05T08:43:57.805Z,1046.25
2019-05-05T08:44:57.731Z,1271.25
2019-05-05T08:45:57.649Z,1366.88
2019-05-05T08:46:57.569Z,1395.00
2019-05-05T08:47:57.557Z,2131.88
2019-05-05T08:48:57.404Z,1693.13
2019-05-05T08:49:57.327Z,3920.63
2019-05-05T08:50:57.341Z,2452.50
2019-05-05T08:51:57.165Z,3903.75
2019-05-05T08:52:57.104Z,2840.63
2019-05-05T08:53:58.032Z,1451.25
2019-05-05T08:54:56.930Z,1586.25
2019-05-05T08:55:56.850Z,1350.00
2019-05-05T08:56:56.940Z,1411.88
2019-05-05T08:57:56.704Z,2272.50
2019-05-05T08:58:56.607Z,2863.13
2019-05-05T09:00:04.958Z,2621.25
2019-05-05T09:00:56.447Z,4117.50
2019-05-05T09:01:56.373Z,2565.00
2019-05-05T09:02:56.307Z,1586.25
2019-05-05T09:03:56.258Z,1440.00
2019-05-05T09:04:56.131Z,4050.00
2019-05-05T09:05:56.052Z,2413.13
2019-05-05T09:06:56.014Z,3723.75
2019-05-05T09:07:55.911Z,4050.00
2019-05-05T09:08:55.815Z,2632.50
2019-05-05T09:09:55.826Z,1822.50
2019-05-05T09:10:55.662Z,2131.88
2019-05-05T09:11:55.583Z,2795.63
2019-05-05T09:12:55.676Z,4055.63
2019-05-05T09:13:55.421Z,4252.50
2019-05-05T09:14:55.342Z,4258.13
2019-05-05T09:15:55.464Z,4325.63
2019-05-05T09:16:55.191Z,3830.63
2019-05-05T09:17:55.126Z,3223.13
2019-05-05T09:18:55.065Z,4303.13
2019-05-05T09:19:54.956Z,3920.63
2019-05-05T09:20:55.084Z,1726.88
2019-05-05T09:21:54.807Z,1771.88
2019-05-05T09:22:57.289Z,1687.50
2019-05-05T09:23:59.969Z,1901.25
2019-05-05T09:24:54.697Z,2160.00
2019-05-05T09:25:54.502Z,2913.75
2019-05-05T09:26:54.509Z,3740.63
2019-05-05T09:27:54.365Z,4055.63
2019-05-05T09:28:54.324Z,3442.50
2019-05-05T09:29:54.403Z,1771.88
2019-05-05T09:30:54.142Z,1603.13
2019-05-05T09:31:54.144Z,1260.00
2019-05-05T09:32:54.217Z,1035.00
2019-05-05T09:33:53.894Z,826.88
2019-05-05T09:34:54.135Z,618.75
2019-05-05T09:35:54.235Z,523.13
2019-05-05T09:36:54.401Z,444.38
2019-05-05T09:37:53.686Z,388.13
2019-05-05T09:38:54.017Z,365.63
2019-05-05T09:39:54.158Z,376.88
2019-05-05T09:40:54.453Z,365.63
2019-05-05T09:41:53.695Z,348.75
2019-05-05T09:42:53.612Z,360.00
2019-05-05T09:43:53.914Z,427.50
2019-05-05T09:44:54.155Z,489.38
2019-05-05T09:45:54.485Z,523.13
2019-05-05T09:46:53.789Z,556.88
2019-05-05T09:47:53.866Z,601.88
2019-05-05T09:48:54.123Z,691.88
2019-05-05T09:49:54.806Z,821.25
2019-05-05T09:50:54.094Z,967.50
2019-05-05T09:51:54.324Z,1096.88
2019-05-05T09:52:53.629Z,1226.25
2019-05-05T09:53:54.166Z,1321.88
2019-05-05T09:54:54.267Z,1417.50
2019-05-05T09:55:52.147Z,1535.63
2019-05-05T09:56:53.808Z,1670.63
2019-05-05T09:57:53.961Z,1659.38
2019-05-05T09:58:51.905Z,1732.50
2019-05-05T09:59:51.817Z,1653.75
2019-05-05T10:00:51.745Z,1620.00
2019-05-05T10:01:53.663Z,1743.75
2019-05-05T10:02:51.572Z,1766.25
2019-05-05T10:03:51.515Z,1760.63
2019-05-05T10:04:51.407Z,1867.50
2019-05-05T10:05:51.330Z,1777.50
2019-05-05T10:06:51.250Z,1788.75
2019-05-05T10:07:51.166Z,1625.63
2019-05-05T10:08:51.100Z,1608.75
2019-05-05T10:09:51.001Z,1738.13
2019-05-05T10:10:50.927Z,3414.38
2019-05-05T10:11:50.838Z,2947.50
2019-05-05T10:12:52.368Z,4185.00
2019-05-05T10:13:50.706Z,3442.50
2019-05-05T10:14:50.608Z,3324.38
2019-05-05T10:15:50.518Z,2947.50
2019-05-05T10:16:50.444Z,3206.25
2019-05-05T10:17:50.354Z,2475.00
2019-05-05T10:18:50.300Z,3645.00
2019-05-05T10:19:50.198Z,3690.00
2019-05-05T10:20:50.122Z,3211.88
2019-05-05T10:21:50.043Z,3150.00
2019-05-05T10:22:49.953Z,4438.13
2019-05-05T10:23:49.901Z,2542.50
2019-05-05T10:24:49.796Z,2323.13
2019-05-05T10:25:49.718Z,4635.00
2019-05-05T10:26:49.642Z,3667.50
2019-05-05T10:27:49.558Z,4595.63
2019-05-05T10:28:49.503Z,4111.88
2019-05-05T10:29:49.407Z,4415.63
2019-05-05T10:30:49.329Z,3785.63
2019-05-05T10:31:49.251Z,4387.50
2019-05-05T10:32:49.167Z,4443.75
2019-05-05T10:33:49.110Z,4426.88
2019-05-05T10:34:49.012Z,4398.75
2019-05-05T10:35:48.934Z,4438.13
2019-05-05T10:36:48.877Z,4449.38
2019-05-05T10:37:48.783Z,4455.00
2019-05-05T10:38:48.729Z,4449.38
2019-05-05T10:39:48.635Z,4494.38
2019-05-05T10:40:48.568Z,4421.25
2019-05-05T10:41:48.482Z,4488.75
2019-05-05T10:42:48.411Z,4691.25
2019-05-05T10:43:48.345Z,4775.63
2019-05-05T10:44:48.262Z,4843.13
2019-05-05T10:45:48.186Z,2520.00
2019-05-05T10:46:48.118Z,1665.00
2019-05-05T10:47:48.036Z,1361.25
2019-05-05T10:48:47.976Z,1366.88
2019-05-05T10:49:47.891Z,1428.75
2019-05-05T10:50:47.817Z,1586.25
2019-05-05T10:51:47.742Z,1783.13
2019-05-05T10:52:47.667Z,1721.25
2019-05-05T10:53:47.600Z,2643.75
2019-05-05T10:54:47.506Z,4336.88
2019-05-05T10:55:47.436Z,2188.13
2019-05-05T10:56:47.365Z,1918.13
2019-05-05T10:57:47.280Z,1558.13
2019-05-05T10:58:47.226Z,3105.00
2019-05-05T10:59:47.127Z,4528.13
2019-05-05T11:00:47.051Z,1676.25
2019-05-05T11:01:46.971Z,1558.13
2019-05-05T11:02:46.891Z,1648.13
2019-05-05T11:03:46.839Z,1805.63
2019-05-05T11:04:46.746Z,2176.88
2019-05-05T11:05:46.660Z,5096.25
2019-05-05T11:06:46.588Z,3476.25
2019-05-05T11:07:46.498Z,2486.25
2019-05-05T11:08:46.439Z,2368.13
2019-05-05T11:09:46.350Z,2221.88
2019-05-05T11:10:46.272Z,2289.38
2019-05-05T11:11:46.190Z,1890.00
2019-05-05T11:12:46.116Z,1462.50
2019-05-05T11:13:46.045Z,1209.38
2019-05-05T11:14:45.961Z,1113.75
2019-05-05T11:15:45.884Z,1068.75
2019-05-05T11:16:45.795Z,1085.63
2019-05-05T11:17:45.716Z,1119.38
2019-05-05T11:18:45.674Z,1175.63
2019-05-05T11:19:45.557Z,1231.88
2019-05-05T11:20:45.491Z,1288.13
2019-05-05T11:21:45.397Z,1361.25
2019-05-05T11:22:45.327Z,1406.25
2019-05-05T11:23:45.247Z,1451.25
2019-05-05T11:24:57.216Z,1451.25
2019-05-05T11:25:45.086Z,1389.38
2019-05-05T11:26:45.018Z,1378.13
2019-05-05T11:27:44.922Z,1501.88
2019-05-05T11:28:44.854Z,1305.00
2019-05-05T11:29:44.785Z,1321.88
2019-05-05T11:30:44.688Z,1383.75
2019-05-05T11:31:44.610Z,1479.38
2019-05-05T11:32:44.534Z,1569.38
2019-05-05T11:33:44.450Z,1676.25
2019-05-05T11:34:44.385Z,2115.00
2019-05-05T11:35:44.461Z,2266.88
2019-05-05T11:36:44.202Z,3684.38
2019-05-05T11:37:44.127Z,3796.88
2019-05-05T11:38:44.544Z,3960.00
2019-05-05T11:39:44.579Z,3988.13
2019-05-05T11:40:44.072Z,3841.88
2019-05-05T11:41:44.130Z,4117.50
2019-05-05T11:42:43.726Z,4348.13
2019-05-05T11:43:43.651Z,4168.13
2019-05-05T11:44:43.581Z,4106.25
2019-05-05T11:45:43.903Z,4342.50
2019-05-05T11:46:44.253Z,4488.75
2019-05-05T11:47:44.380Z,4449.38
2019-05-05T11:48:43.883Z,4449.38
2019-05-05T11:49:44.174Z,4528.13
2019-05-05T11:50:43.597Z,4528.13
2019-05-05T11:51:43.683Z,4511.25
2019-05-05T11:52:44.387Z,4449.38
2019-05-05T11:53:44.706Z,4646.25
2019-05-05T11:54:43.883Z,4640.63
2019-05-05T11:55:44.292Z,4792.50
2019-05-05T11:56:44.547Z,4826.25
2019-05-05T11:57:43.756Z,4393.13
2019-05-05T11:58:44.226Z,4280.63
2019-05-05T11:59:42.425Z,2531.25
2019-05-05T12:00:43.842Z,2036.25
2019-05-05T12:01:44.039Z,1372.50
2019-05-05T12:02:43.940Z,1085.63
2019-05-05T12:03:44.141Z,916.88
2019-05-05T12:04:42.052Z,798.75
2019-05-05T12:05:44.089Z,725.63
2019-05-05T12:06:44.115Z,669.38
2019-05-05T12:07:43.463Z,607.50
2019-05-05T12:08:45.490Z,568.13
2019-05-05T12:09:41.670Z,523.13
2019-05-05T12:10:43.825Z,511.88
2019-05-05T12:11:41.494Z,517.50
2019-05-05T12:12:41.425Z,528.75
2019-05-05T12:13:41.341Z,511.88
2019-05-05T12:14:41.274Z,495.00
2019-05-05T12:15:41.187Z,478.13
2019-05-05T12:16:41.104Z,472.50
2019-05-05T12:17:41.022Z,466.88
2019-05-05T12:18:40.941Z,478.13
2019-05-05T12:19:40.865Z,483.75
2019-05-05T12:20:40.793Z,478.13
2019-05-05T12:21:40.700Z,466.88
2019-05-05T12:22:40.616Z,478.13
2019-05-05T12:23:40.546Z,506.25
2019-05-05T12:24:40.471Z,573.75
2019-05-05T12:25:40.375Z,658.13
2019-05-05T12:26:40.297Z,753.75
2019-05-05T12:27:40.210Z,849.38
2019-05-05T12:28:40.132Z,939.38
2019-05-05T12:29:40.076Z,1029.38
2019-05-05T12:30:39.970Z,1108.13
2019-05-05T12:31:39.893Z,1203.75
2019-05-05T12:32:39.804Z,1288.13
2019-05-05T12:33:39.721Z,1366.88
2019-05-05T12:34:39.660Z,1451.25
2019-05-05T12:35:39.568Z,1546.88